sensor_id;sensor_type;location;lat;lon;timestamp;pressure;altitude;pressure_sealevel;temperature;humidity
22662;BME280;11497;52.222;21.246;2024-03-17T00:00:10;100362.19;;;5.29;80.62
22662;BME280;11497;52.222;21.246;2024-03-17T00:03:01;100364.03;;;5.33;80.67
22662;BME280;11497;52.222;21.246;2024-03-17T00:05:28;100368.06;;;5.25;80.74
22662;BME280;11497;52.222;21.246;2024-03-17T00:07:55;100362.84;;;5.20;80.77
22662;BME280;11497;52.222;21.246;2024-03-17T00:10:22;100362.03;;;5.21;80.77
22662;BME280;11497;52.222;21.246;2024-03-17T00:12:49;100365.09;;;5.08;80.71
22662;BME280;11497;52.222;21.246;2024-03-17T00:15:17;100368.78;;;5.19;79.72
22662;BME280;11497;52.222;21.246;2024-03-17T00:17:44;100369.47;;;5.14;78.62
22662;BME280;11497;52.222;21.246;2024-03-17T00:20:11;100375.44;;;5.13;78.96
22662;BME280;11497;52.222;21.246;2024-03-17T00:22:49;100380.28;;;5.03;78.35
22662;BME280;11497;52.222;21.246;2024-03-17T00:25:17;100379.63;;;5.11;77.42
22662;BME280;11497;52.222;21.246;2024-03-17T00:27:45;100387.97;;;5.05;77.42
22662;BME280;11497;52.222;21.246;2024-03-17T00:30:14;100389.66;;;5.04;76.81
22662;BME280;11497;52.222;21.246;2024-03-17T00:32:42;100402.34;;;5.01;76.83
22662;BME280;11497;52.222;21.246;2024-03-17T00:35:10;100401.44;;;4.99;76.92
22662;BME280;11497;52.222;21.246;2024-03-17T00:37:40;100398.25;;;5.08;76.17
22662;BME280;11497;52.222;21.246;2024-03-17T00:40:07;100405.81;;;5.05;75.90
22662;BME280;11497;52.222;21.246;2024-03-17T00:42:34;100404.31;;;5.12;74.53
22662;BME280;11497;52.222;21.246;2024-03-17T00:45:01;100409.38;;;5.10;75.95
22662;BME280;11497;52.222;21.246;2024-03-17T00:47:29;100404.06;;;5.02;75.76
22662;BME280;11497;52.222;21.246;2024-03-17T00:49:56;100402.47;;;5.06;74.47
22662;BME280;11497;52.222;21.246;2024-03-17T00:52:23;100401.44;;;4.99;73.54
22662;BME280;11497;52.222;21.246;2024-03-17T00:54:50;100399.06;;;5.07;72.70
22662;BME280;11497;52.222;21.246;2024-03-17T00:57:17;100405.16;;;5.11;71.41
22662;BME280;11497;52.222;21.246;2024-03-17T00:59:43;100396.28;;;4.98;71.95
22662;BME280;11497;52.222;21.246;2024-03-17T01:02:17;100401.41;;;4.98;71.82
22662;BME280;11497;52.222;21.246;2024-03-17T01:04:45;100396.16;;;4.93;71.28
22662;BME280;11497;52.222;21.246;2024-03-17T01:07:12;100386.84;;;4.94;68.26
22662;BME280;11497;52.222;21.246;2024-03-17T01:09:39;100411.19;;;4.82;69.38
22662;BME280;11497;52.222;21.246;2024-03-17T01:12:06;100402.81;;;4.88;69.39
22662;BME280;11497;52.222;21.246;2024-03-17T01:14:33;100408.50;;;4.78;68.37
22662;BME280;11497;52.222;21.246;2024-03-17T01:17:02;100404.56;;;4.89;67.21
22662;BME280;11497;52.222;21.246;2024-03-17T01:19:32;100404.25;;;4.77;68.59
22662;BME280;11497;52.222;21.246;2024-03-17T01:22:02;100412.56;;;4.69;68.96
22662;BME280;11497;52.222;21.246;2024-03-17T01:24:29;100406.53;;;4.67;69.52
22662;BME280;11497;52.222;21.246;2024-03-17T01:27:00;100417.38;;;4.60;69.32
22662;BME280;11497;52.222;21.246;2024-03-17T01:29:28;100409.72;;;4.60;68.80
22662;BME280;11497;52.222;21.246;2024-03-17T01:31:55;100417.19;;;4.53;69.82
22662;BME280;11497;52.222;21.246;2024-03-17T01:34:22;100417.94;;;4.50;68.84
22662;BME280;11497;52.222;21.246;2024-03-17T01:36:49;100422.78;;;4.41;68.00
22662;BME280;11497;52.222;21.246;2024-03-17T01:39:17;100428.22;;;4.53;66.76
22662;BME280;11497;52.222;21.246;2024-03-17T01:41:45;100428.88;;;4.46;66.13
22662;BME280;11497;52.222;21.246;2024-03-17T01:44:28;100423.59;;;4.40;67.69
22662;BME280;11497;52.222;21.246;2024-03-17T01:46:57;100426.28;;;4.44;66.87
22662;BME280;11497;52.222;21.246;2024-03-17T01:49:25;100433.69;;;4.35;67.74
22662;BME280;11497;52.222;21.246;2024-03-17T01:51:54;100423.16;;;4.24;67.81
22662;BME280;11497;52.222;21.246;2024-03-17T01:54:21;100437.38;;;4.16;67.81
22662;BME280;11497;52.222;21.246;2024-03-17T01:56:48;100429.47;;;4.08;68.87
22662;BME280;11497;52.222;21.246;2024-03-17T01:59:16;100437.69;;;4.00;68.79
22662;BME280;11497;52.222;21.246;2024-03-17T02:01:43;100440.97;;;3.96;69.38
22662;BME280;11497;52.222;21.246;2024-03-17T02:04:11;100440.19;;;3.98;68.29
22662;BME280;11497;52.222;21.246;2024-03-17T02:06:38;100443.31;;;3.89;68.47
22662;BME280;11497;52.222;21.246;2024-03-17T02:09:05;100443.97;;;3.82;68.11
22662;BME280;11497;52.222;21.246;2024-03-17T02:11:34;100446.25;;;3.74;68.09
22662;BME280;11497;52.222;21.246;2024-03-17T02:14:01;100446.81;;;3.66;69.11
22662;BME280;11497;52.222;21.246;2024-03-17T02:16:28;100451.78;;;3.61;69.03
22662;BME280;11497;52.222;21.246;2024-03-17T02:18:58;100460.31;;;3.63;69.41
22662;BME280;11497;52.222;21.246;2024-03-17T02:21:26;100457.63;;;3.59;70.04
22662;BME280;11497;52.222;21.246;2024-03-17T02:23:56;100460.13;;;3.57;70.30
22662;BME280;11497;52.222;21.246;2024-03-17T02:26:24;100455.13;;;3.60;69.84
22662;BME280;11497;52.222;21.246;2024-03-17T02:28:51;100455.63;;;3.50;70.59
22662;BME280;11497;52.222;21.246;2024-03-17T02:31:19;100453.00;;;3.47;70.77
22662;BME280;11497;52.222;21.246;2024-03-17T02:33:46;100456.41;;;3.47;70.41
22662;BME280;11497;52.222;21.246;2024-03-17T02:36:13;100449.06;;;3.31;70.95
22662;BME280;11497;52.222;21.246;2024-03-17T02:38:40;100458.22;;;3.26;71.26
22662;BME280;11497;52.222;21.246;2024-03-17T02:41:27;100457.03;;;3.16;71.90
22662;BME280;11497;52.222;21.246;2024-03-17T02:43:55;100457.03;;;3.16;71.71
22662;BME280;11497;52.222;21.246;2024-03-17T02:46:22;100470.47;;;3.12;72.42
22662;BME280;11497;52.222;21.246;2024-03-17T02:48:52;100460.34;;;3.13;72.39
22662;BME280;11497;52.222;21.246;2024-03-17T02:51:20;100461.28;;;3.15;72.47
22662;BME280;11497;52.222;21.246;2024-03-17T02:53:48;100475.69;;;3.15;72.45
22662;BME280;11497;52.222;21.246;2024-03-17T02:56:17;100474.66;;;3.10;72.76
22662;BME280;11497;52.222;21.246;2024-03-17T02:58:48;100476.41;;;3.12;72.42
22662;BME280;11497;52.222;21.246;2024-03-17T03:01:18;100469.28;;;3.02;72.75
22662;BME280;11497;52.222;21.246;2024-03-17T03:03:46;100481.94;;;3.00;72.28
22662;BME280;11497;52.222;21.246;2024-03-17T03:06:14;100474.78;;;2.90;72.52
22662;BME280;11497;52.222;21.246;2024-03-17T03:08:41;100478.34;;;2.71;72.94
22662;BME280;11497;52.222;21.246;2024-03-17T03:11:10;100480.63;;;2.63;73.19
22662;BME280;11497;52.222;21.246;2024-03-17T03:13:39;100482.00;;;2.55;73.02
22662;BME280;11497;52.222;21.246;2024-03-17T03:16:07;100474.19;;;2.51;73.57
22662;BME280;11497;52.222;21.246;2024-03-17T03:18:38;100478.88;;;2.40;73.71
22662;BME280;11497;52.222;21.246;2024-03-17T03:21:08;100480.25;;;2.32;74.38
22662;BME280;11497;52.222;21.246;2024-03-17T03:23:35;100484.19;;;2.23;74.27
22662;BME280;11497;52.222;21.246;2024-03-17T03:26:03;100480.56;;;2.17;74.15
22662;BME280;11497;52.222;21.246;2024-03-17T03:28:32;100489.56;;;2.09;74.52
22662;BME280;11497;52.222;21.246;2024-03-17T03:30:59;100485.25;;;2.08;74.63
22662;BME280;11497;52.222;21.246;2024-03-17T03:33:26;100489.13;;;1.98;74.63
22662;BME280;11497;52.222;21.246;2024-03-17T03:35:54;100486.81;;;2.04;74.90
22662;BME280;11497;52.222;21.246;2024-03-17T03:38:22;100484.53;;;2.10;74.98
22662;BME280;11497;52.222;21.246;2024-03-17T03:40:50;100477.50;;;2.25;74.23
22662;BME280;11497;52.222;21.246;2024-03-17T03:43:16;100483.00;;;2.36;74.04
22662;BME280;11497;52.222;21.246;2024-03-17T03:45:44;100479.19;;;2.48;73.43
22662;BME280;11497;52.222;21.246;2024-03-17T03:48:11;100469.25;;;2.54;73.19
22662;BME280;11497;52.222;21.246;2024-03-17T03:50:39;100475.75;;;2.70;72.07
22662;BME280;11497;52.222;21.246;2024-03-17T03:53:06;100475.69;;;2.68;71.96
22662;BME280;11497;52.222;21.246;2024-03-17T03:55:33;100475.16;;;2.53;72.18
22662;BME280;11497;52.222;21.246;2024-03-17T03:58:00;100473.22;;;2.47;72.16
22662;BME280;11497;52.222;21.246;2024-03-17T04:00:27;100477.78;;;2.33;72.28
22662;BME280;11497;52.222;21.246;2024-03-17T04:02:59;100480.16;;;2.29;72.63
22662;BME280;11497;52.222;21.246;2024-03-17T04:05:27;100484.09;;;2.20;72.60
22662;BME280;11497;52.222;21.246;2024-03-17T04:07:54;100485.41;;;2.11;73.47
22662;BME280;11497;52.222;21.246;2024-03-17T04:10:21;100489.22;;;2.01;73.25
22662;BME280;11497;52.222;21.246;2024-03-17T04:12:49;100489.00;;;1.95;73.72
22662;BME280;11497;52.222;21.246;2024-03-17T04:15:16;100485.97;;;2.03;74.08
22662;BME280;11497;52.222;21.246;2024-03-17T04:17:43;100489.09;;;2.19;74.22
22662;BME280;11497;52.222;21.246;2024-03-17T04:20:10;100479.28;;;2.28;74.74
22662;BME280;11497;52.222;21.246;2024-03-17T04:22:41;100488.78;;;2.32;75.07
22662;BME280;11497;52.222;21.246;2024-03-17T04:25:10;100488.94;;;2.37;75.28
22662;BME280;11497;52.222;21.246;2024-03-17T04:27:37;100491.88;;;2.25;75.16
22662;BME280;11497;52.222;21.246;2024-03-17T04:30:06;100491.94;;;2.27;75.01
22662;BME280;11497;52.222;21.246;2024-03-17T04:32:33;100491.81;;;2.23;75.49
22662;BME280;11497;52.222;21.246;2024-03-17T04:35:01;100492.22;;;2.12;75.99
22662;BME280;11497;52.222;21.246;2024-03-17T04:37:28;100491.38;;;2.13;76.56
22662;BME280;11497;52.222;21.246;2024-03-17T04:39:55;100491.44;;;2.14;76.89
22662;BME280;11497;52.222;21.246;2024-03-17T04:42:24;100493.25;;;2.17;77.14
22662;BME280;11497;52.222;21.246;2024-03-17T04:44:51;100490.09;;;2.22;76.74
22662;BME280;11497;52.222;21.246;2024-03-17T04:47:18;100492.38;;;2.39;76.64
22662;BME280;11497;52.222;21.246;2024-03-17T04:49:45;100491.25;;;2.53;76.26
22662;BME280;11497;52.222;21.246;2024-03-17T04:52:12;100489.97;;;2.65;75.80
22662;BME280;11497;52.222;21.246;2024-03-17T04:54:39;100488.28;;;2.88;74.40
22662;BME280;11497;52.222;21.246;2024-03-17T04:57:09;100488.44;;;2.92;74.21
22662;BME280;11497;52.222;21.246;2024-03-17T04:59:37;100485.25;;;2.98;73.92
22662;BME280;11497;52.222;21.246;2024-03-17T05:02:05;100493.13;;;3.06;73.95
22662;BME280;11497;52.222;21.246;2024-03-17T05:04:32;100492.59;;;3.14;73.26
22662;BME280;11497;52.222;21.246;2024-03-17T05:06:59;100494.28;;;3.14;72.84
22662;BME280;11497;52.222;21.246;2024-03-17T05:09:26;100484.22;;;3.17;72.69
22662;BME280;11497;52.222;21.246;2024-03-17T05:11:53;100488.59;;;3.21;72.21
22662;BME280;11497;52.222;21.246;2024-03-17T05:14:20;100493.19;;;3.31;71.15
22662;BME280;11497;52.222;21.246;2024-03-17T05:16:50;100495.78;;;3.33;71.38
22662;BME280;11497;52.222;21.246;2024-03-17T05:19:18;100493.34;;;3.36;70.87
22662;BME280;11497;52.222;21.246;2024-03-17T05:21:48;100496.13;;;3.42;70.90
22662;BME280;11497;52.222;21.246;2024-03-17T05:24:15;100495.19;;;3.40;70.48
22662;BME280;11497;52.222;21.246;2024-03-17T05:26:42;100498.06;;;3.49;70.82
22662;BME280;11497;52.222;21.246;2024-03-17T05:29:09;100487.25;;;3.56;70.11
22662;BME280;11497;52.222;21.246;2024-03-17T05:31:36;100489.97;;;3.61;70.32
22662;BME280;11497;52.222;21.246;2024-03-17T05:34:06;100490.31;;;3.72;69.68
22662;BME280;11497;52.222;21.246;2024-03-17T05:36:34;100488.38;;;3.90;69.01
22662;BME280;11497;52.222;21.246;2024-03-17T05:39:02;100483.44;;;3.97;69.20
22662;BME280;11497;52.222;21.246;2024-03-17T05:41:28;100496.38;;;4.03;69.18
22662;BME280;11497;52.222;21.246;2024-03-17T05:43:56;100491.34;;;4.04;69.38
22662;BME280;11497;52.222;21.246;2024-03-17T05:46:26;100494.13;;;4.12;69.44
22662;BME280;11497;52.222;21.246;2024-03-17T05:48:53;100500.78;;;4.36;68.62
22662;BME280;11497;52.222;21.246;2024-03-17T05:51:20;100501.84;;;4.42;68.90
22662;BME280;11497;52.222;21.246;2024-03-17T05:53:48;100507.50;;;4.61;68.55
22662;BME280;11497;52.222;21.246;2024-03-17T05:56:15;100493.41;;;4.74;68.42
22662;BME280;11497;52.222;21.246;2024-03-17T05:58:44;100496.31;;;4.86;68.86
22662;BME280;11497;52.222;21.246;2024-03-17T06:01:11;100507.03;;;5.36;70.09
22662;BME280;11497;52.222;21.246;2024-03-17T06:03:38;100508.66;;;5.66;67.58
22662;BME280;11497;52.222;21.246;2024-03-17T06:06:06;100498.69;;;5.77;66.43
22662;BME280;11497;52.222;21.246;2024-03-17T06:08:39;100506.78;;;5.59;67.17
22662;BME280;11497;52.222;21.246;2024-03-17T06:11:06;100500.72;;;5.55;66.90
22662;BME280;11497;52.222;21.246;2024-03-17T06:13:33;100503.16;;;6.20;67.41
22662;BME280;11497;52.222;21.246;2024-03-17T06:16:02;100504.44;;;7.23;64.38
22662;BME280;11497;52.222;21.246;2024-03-17T06:18:30;100498.63;;;7.79;63.82
22662;BME280;11497;52.222;21.246;2024-03-17T06:20:57;100495.16;;;8.96;57.94
22662;BME280;11497;52.222;21.246;2024-03-17T06:23:25;100505.44;;;8.98;55.60
22662;BME280;11497;52.222;21.246;2024-03-17T06:25:55;100492.25;;;8.69;55.01
22662;BME280;11497;52.222;21.246;2024-03-17T06:28:22;100492.94;;;8.57;55.08
22662;BME280;11497;52.222;21.246;2024-03-17T06:30:57;100504.13;;;8.62;54.29
22662;BME280;11497;52.222;21.246;2024-03-17T06:33:28;100505.59;;;8.43;53.56
22662;BME280;11497;52.222;21.246;2024-03-17T06:35:54;100505.19;;;8.17;53.77
22662;BME280;11497;52.222;21.246;2024-03-17T06:38:22;100505.78;;;8.00;54.17
22662;BME280;11497;52.222;21.246;2024-03-17T06:40:52;100505.66;;;7.94;54.19
22662;BME280;11497;52.222;21.246;2024-03-17T06:43:20;100505.81;;;8.02;54.78
22662;BME280;11497;52.222;21.246;2024-03-17T06:46:00;100504.94;;;8.01;54.46
22662;BME280;11497;52.222;21.246;2024-03-17T06:48:28;100500.53;;;7.94;53.67
22662;BME280;11497;52.222;21.246;2024-03-17T06:50:55;100497.22;;;7.98;53.46
22662;BME280;11497;52.222;21.246;2024-03-17T06:53:23;100491.63;;;8.25;53.01
22662;BME280;11497;52.222;21.246;2024-03-17T06:55:59;100494.50;;;8.45;53.12
22662;BME280;11497;52.222;21.246;2024-03-17T06:58:27;100497.31;;;9.37;50.89
22662;BME280;11497;52.222;21.246;2024-03-17T07:00:57;100505.00;;;9.37;48.48
22662;BME280;11497;52.222;21.246;2024-03-17T07:03:26;100492.75;;;9.12;48.66
22662;BME280;11497;52.222;21.246;2024-03-17T07:05:58;100505.50;;;9.03;48.70
22662;BME280;11497;52.222;21.246;2024-03-17T07:08:26;100501.38;;;8.48;49.44
22662;BME280;11497;52.222;21.246;2024-03-17T07:11:10;100495.72;;;8.14;51.09
22662;BME280;11497;52.222;21.246;2024-03-17T07:13:38;100512.34;;;7.83;51.58
22662;BME280;11497;52.222;21.246;2024-03-17T07:16:08;100505.25;;;7.68;52.31
22662;BME280;11497;52.222;21.246;2024-03-17T07:18:36;100499.03;;;7.54;53.23
22662;BME280;11497;52.222;21.246;2024-03-17T07:21:04;100512.59;;;7.48;52.61
22662;BME280;11497;52.222;21.246;2024-03-17T07:23:32;100509.13;;;7.44;53.65
22662;BME280;11497;52.222;21.246;2024-03-17T07:26:00;100517.00;;;7.55;53.81
22662;BME280;11497;52.222;21.246;2024-03-17T07:28:28;100526.72;;;7.75;53.74
22662;BME280;11497;52.222;21.246;2024-03-17T07:30:56;100527.81;;;7.87;53.19
22662;BME280;11497;52.222;21.246;2024-03-17T07:33:24;100516.16;;;8.08;52.23
22662;BME280;11497;52.222;21.246;2024-03-17T07:35:56;100513.16;;;7.82;52.66
22662;BME280;11497;52.222;21.246;2024-03-17T07:38:30;100520.91;;;7.85;52.87
22662;BME280;11497;52.222;21.246;2024-03-17T07:41:02;100515.75;;;7.83;53.00
22662;BME280;11497;52.222;21.246;2024-03-17T07:43:32;100520.66;;;7.69;53.05
22662;BME280;11497;52.222;21.246;2024-03-17T07:46:04;100524.34;;;7.87;53.13
22662;BME280;11497;52.222;21.246;2024-03-17T07:48:33;100531.25;;;7.89;53.28
22662;BME280;11497;52.222;21.246;2024-03-17T07:51:02;100522.44;;;7.74;53.25
22662;BME280;11497;52.222;21.246;2024-03-17T07:53:34;100520.69;;;7.71;54.06
22662;BME280;11497;52.222;21.246;2024-03-17T07:56:03;100525.28;;;7.92;53.61
22662;BME280;11497;52.222;21.246;2024-03-17T07:58:31;100521.06;;;7.96;52.98
22662;BME280;11497;52.222;21.246;2024-03-17T08:01:03;100514.31;;;8.01;52.76
22662;BME280;11497;52.222;21.246;2024-03-17T08:03:32;100520.50;;;8.12;52.83
22662;BME280;11497;52.222;21.246;2024-03-17T08:06:00;100519.03;;;8.30;53.16
22662;BME280;11497;52.222;21.246;2024-03-17T08:08:28;100517.56;;;8.44;52.43
22662;BME280;11497;52.222;21.246;2024-03-17T08:10:55;100519.34;;;8.48;51.99
22662;BME280;11497;52.222;21.246;2024-03-17T08:13:22;100523.09;;;8.72;51.56
22662;BME280;11497;52.222;21.246;2024-03-17T08:16:01;100525.84;;;8.87;51.04
22662;BME280;11497;52.222;21.246;2024-03-17T08:18:29;100527.50;;;8.82;50.42
22662;BME280;11497;52.222;21.246;2024-03-17T08:20:56;100523.03;;;8.67;51.54
22662;BME280;11497;52.222;21.246;2024-03-17T08:23:24;100526.34;;;8.60;51.56
22662;BME280;11497;52.222;21.246;2024-03-17T08:25:55;100522.31;;;8.77;51.29
22662;BME280;11497;52.222;21.246;2024-03-17T08:28:24;100528.47;;;8.92;51.21
22662;BME280;11497;52.222;21.246;2024-03-17T08:30:54;100520.91;;;9.04;50.97
22662;BME280;11497;52.222;21.246;2024-03-17T08:33:22;100519.38;;;9.20;50.39
22662;BME280;11497;52.222;21.246;2024-03-17T08:36:06;100516.25;;;9.49;49.83
22662;BME280;11497;52.222;21.246;2024-03-17T08:38:35;100515.47;;;9.54;49.27
22662;BME280;11497;52.222;21.246;2024-03-17T08:41:04;100515.41;;;9.50;49.87
22662;BME280;11497;52.222;21.246;2024-03-17T08:43:33;100511.22;;;9.60;49.43
22662;BME280;11497;52.222;21.246;2024-03-17T08:46:08;100518.97;;;9.63;48.49
22662;BME280;11497;52.222;21.246;2024-03-17T08:48:37;100519.63;;;9.43;50.20
22662;BME280;11497;52.222;21.246;2024-03-17T08:51:05;100519.25;;;9.08;50.27
22662;BME280;11497;52.222;21.246;2024-03-17T08:53:33;100518.88;;;8.78;50.18
22662;BME280;11497;52.222;21.246;2024-03-17T08:56:00;100525.72;;;8.78;51.41
22662;BME280;11497;52.222;21.246;2024-03-17T08:58:29;100513.56;;;8.63;51.72
22662;BME280;11497;52.222;21.246;2024-03-17T09:00:56;100518.56;;;8.54;52.54
22662;BME280;11497;52.222;21.246;2024-03-17T09:03:23;100523.56;;;8.44;52.42
22662;BME280;11497;52.222;21.246;2024-03-17T09:05:52;100529.44;;;8.40;52.20
22662;BME280;11497;52.222;21.246;2024-03-17T09:08:23;100520.75;;;8.29;51.46
22662;BME280;11497;52.222;21.246;2024-03-17T09:10:51;100526.63;;;8.22;52.25
22662;BME280;11497;52.222;21.246;2024-03-17T09:13:20;100521.38;;;8.14;51.76
22662;BME280;11497;52.222;21.246;2024-03-17T09:18:30;100525.81;;;8.24;51.76
22662;BME280;11497;52.222;21.246;2024-03-17T09:20:59;100525.69;;;8.15;52.22
22662;BME280;11497;52.222;21.246;2024-03-17T09:23:26;100518.47;;;7.94;52.67
22662;BME280;11497;52.222;21.246;2024-03-17T09:25:58;100520.69;;;7.71;53.31
22662;BME280;11497;52.222;21.246;2024-03-17T09:28:25;100521.34;;;7.61;54.42
22662;BME280;11497;52.222;21.246;2024-03-17T09:30:52;100516.09;;;7.55;54.83
22662;BME280;11497;52.222;21.246;2024-03-17T09:33:24;100523.56;;;7.42;55.47
22662;BME280;11497;52.222;21.246;2024-03-17T09:36:02;100528.25;;;7.18;57.03
22662;BME280;11497;52.222;21.246;2024-03-17T09:38:29;100526.09;;;6.95;57.91
22662;BME280;11497;52.222;21.246;2024-03-17T09:40:57;100531.63;;;6.74;58.16
22662;BME280;11497;52.222;21.246;2024-03-17T09:43:25;100534.38;;;6.44;59.94
22662;BME280;11497;52.222;21.246;2024-03-17T09:45:52;100540.16;;;6.35;60.74
22662;BME280;11497;52.222;21.246;2024-03-17T09:48:28;100545.03;;;6.24;61.53
22662;BME280;11497;52.222;21.246;2024-03-17T09:51:00;100544.75;;;6.13;62.56
22662;BME280;11497;52.222;21.246;2024-03-17T09:53:35;100549.38;;;5.93;64.45
22662;BME280;11497;52.222;21.246;2024-03-17T09:56:13;100550.94;;;5.88;63.55
22662;BME280;11497;52.222;21.246;2024-03-17T09:58:43;100550.91;;;5.87;62.42
22662;BME280;11497;52.222;21.246;2024-03-17T10:01:10;100551.97;;;5.95;61.31
22662;BME280;11497;52.222;21.246;2024-03-17T10:03:52;100546.56;;;6.17;60.35
22662;BME280;11497;52.222;21.246;2024-03-17T10:06:22;100541.50;;;6.20;59.72
22662;BME280;11497;52.222;21.246;2024-03-17T10:08:51;100539.13;;;6.66;59.09
22662;BME280;11497;52.222;21.246;2024-03-17T10:11:20;100546.75;;;7.04;58.47
22662;BME280;11497;52.222;21.246;2024-03-17T10:14:02;100541.91;;;7.18;57.66
22662;BME280;11497;52.222;21.246;2024-03-17T10:16:30;100545.91;;;7.48;56.37
22662;BME280;11497;52.222;21.246;2024-03-17T10:19:08;100551.16;;;8.06;55.61
22662;BME280;11497;52.222;21.246;2024-03-17T10:21:38;100549.97;;;8.40;53.18
22662;BME280;11497;52.222;21.246;2024-03-17T10:24:22;100534.81;;;8.53;52.90
22662;BME280;11497;52.222;21.246;2024-03-17T10:26:53;100542.50;;;8.53;52.17
22662;BME280;11497;52.222;21.246;2024-03-17T10:34:31;100534.75;;;8.48;51.67
22662;BME280;11497;52.222;21.246;2024-03-17T10:37:14;100535.88;;;8.12;52.56
22662;BME280;11497;52.222;21.246;2024-03-17T10:39:43;100540.84;;;8.01;52.38
22662;BME280;11497;52.222;21.246;2024-03-17T10:42:11;100546.47;;;7.82;52.79
22662;BME280;11497;52.222;21.246;2024-03-17T10:44:42;100541.00;;;7.60;53.17
22662;BME280;11497;52.222;21.246;2024-03-17T10:47:25;100537.31;;;7.02;54.34
22662;BME280;11497;52.222;21.246;2024-03-17T10:49:56;100545.41;;;6.81;55.86
22662;BME280;11497;52.222;21.246;2024-03-17T10:52:24;100538.69;;;6.84;56.15
22662;BME280;11497;52.222;21.246;2024-03-17T10:54:56;100543.25;;;7.01;56.65
22662;BME280;11497;52.222;21.246;2024-03-17T11:00:07;100540.72;;;7.01;57.62
22662;BME280;11497;52.222;21.246;2024-03-17T11:02:42;100543.66;;;6.78;58.15
22662;BME280;11497;52.222;21.246;2024-03-17T11:05:16;100540.31;;;6.82;59.05
22662;BME280;11497;52.222;21.246;2024-03-17T11:07:45;100546.97;;;6.72;58.99
22662;BME280;11497;52.222;21.246;2024-03-17T11:10:26;100534.25;;;6.77;58.62
22662;BME280;11497;52.222;21.246;2024-03-17T11:12:57;100539.16;;;6.68;59.30
22662;BME280;11497;52.222;21.246;2024-03-17T11:21:19;100524.25;;;6.48;60.15
22662;BME280;11497;52.222;21.246;2024-03-17T11:24:00;100533.22;;;6.31;60.54
22662;BME280;11497;52.222;21.246;2024-03-17T11:26:30;100533.22;;;6.29;60.88
22662;BME280;11497;52.222;21.246;2024-03-17T11:28:57;100529.72;;;6.27;60.63
22662;BME280;11497;52.222;21.246;2024-03-17T11:31:42;100537.47;;;6.30;60.75
22662;BME280;11497;52.222;21.246;2024-03-17T11:34:29;100538.56;;;6.04;61.47
22662;BME280;11497;52.222;21.246;2024-03-17T11:36:58;100542.09;;;5.75;63.54
22662;BME280;11497;52.222;21.246;2024-03-17T11:39:48;100549.44;;;5.63;64.94
22662;BME280;11497;52.222;21.246;2024-03-17T11:42:23;100547.09;;;5.39;66.80
22662;BME280;11497;52.222;21.246;2024-03-17T11:45:04;100547.56;;;5.25;68.72
22662;BME280;11497;52.222;21.246;2024-03-17T11:47:36;100550.19;;;5.27;68.95
22662;BME280;11497;52.222;21.246;2024-03-17T11:50:05;100554.34;;;5.55;67.66
22662;BME280;11497;52.222;21.246;2024-03-17T11:52:34;100546.59;;;5.52;67.50
22662;BME280;11497;52.222;21.246;2024-03-17T11:55:00;100554.13;;;5.48;66.96
22662;BME280;11497;52.222;21.246;2024-03-17T11:57:29;100556.59;;;5.44;68.83
22662;BME280;11497;52.222;21.246;2024-03-17T11:59:56;100549.28;;;5.25;66.76
22662;BME280;11497;52.222;21.246;2024-03-17T12:02:26;100558.25;;;5.11;66.76
22662;BME280;11497;52.222;21.246;2024-03-17T12:04:56;100551.91;;;4.98;66.44
22662;BME280;11497;52.222;21.246;2024-03-17T12:07:24;100562.91;;;4.95;66.93
22662;BME280;11497;52.222;21.246;2024-03-17T12:09:52;100565.47;;;4.97;66.86
22662;BME280;11497;52.222;21.246;2024-03-17T12:12:22;100561.75;;;4.85;67.79
22662;BME280;11497;52.222;21.246;2024-03-17T12:14:50;100562.38;;;4.77;66.65
22662;BME280;11497;52.222;21.246;2024-03-17T12:17:22;100557.34;;;4.80;66.69
22662;BME280;11497;52.222;21.246;2024-03-17T12:19:56;100551.47;;;4.82;67.36
22662;BME280;11497;52.222;21.246;2024-03-17T12:22:24;100548.91;;;5.11;65.81
22662;BME280;11497;52.222;21.246;2024-03-17T12:24:54;100552.56;;;5.21;65.36
22662;BME280;11497;52.222;21.246;2024-03-17T12:27:23;100545.31;;;5.36;65.30
22662;BME280;11497;52.222;21.246;2024-03-17T12:29:51;100550.66;;;5.77;63.29
22662;BME280;11497;52.222;21.246;2024-03-17T12:32:24;100548.44;;;5.91;63.51
22662;BME280;11497;52.222;21.246;2024-03-17T12:34:54;100543.97;;;6.16;62.97
22662;BME280;11497;52.222;21.246;2024-03-17T12:37:23;100546.59;;;6.19;61.53
22662;BME280;11497;52.222;21.246;2024-03-17T12:39:52;100535.66;;;6.25;60.49
22662;BME280;11497;52.222;21.246;2024-03-17T12:42:25;100532.38;;;6.70;59.08
22662;BME280;11497;52.222;21.246;2024-03-17T12:44:57;100531.00;;;6.84;58.56
22662;BME280;11497;52.222;21.246;2024-03-17T12:47:29;100530.78;;;7.16;57.85
22662;BME280;11497;52.222;21.246;2024-03-17T12:49:59;100524.19;;;7.27;56.62
22662;BME280;11497;52.222;21.246;2024-03-17T12:52:32;100530.47;;;7.45;55.88
22662;BME280;11497;52.222;21.246;2024-03-17T12:57:52;100533.25;;;7.13;56.26
22662;BME280;11497;52.222;21.246;2024-03-17T13:00:38;100543.63;;;6.76;59.01
22662;BME280;11497;52.222;21.246;2024-03-17T13:03:06;100544.81;;;6.16;62.56
22662;BME280;11497;52.222;21.246;2024-03-17T13:05:36;100538.94;;;6.19;63.97
22662;BME280;11497;52.222;21.246;2024-03-17T13:08:04;100542.66;;;5.97;64.35
22662;BME280;11497;52.222;21.246;2024-03-17T13:10:32;100538.97;;;6.22;64.86
22662;BME280;11497;52.222;21.246;2024-03-17T13:13:07;100547.94;;;6.40;64.66
22662;BME280;11497;52.222;21.246;2024-03-17T13:15:35;100550.03;;;6.57;64.13
22662;BME280;11497;52.222;21.246;2024-03-17T13:18:03;100541.41;;;6.93;63.35
22662;BME280;11497;52.222;21.246;2024-03-17T13:20:31;100540.09;;;7.12;61.77